sensor_id;sensor_type;location;lat;lon;timestamp;pressure;altitude;pressure_sealevel;temperature;humidity
76011;BME280;64701;43.536;1.478;2023-03-23T00:01:54;99125.16;;;14.28;53.21
76011;BME280;64701;43.536;1.478;2023-03-23T00:04:19;99122.94;;;14.25;53.90
76011;BME280;64701;43.536;1.478;2023-03-23T00:06:45;99126.78;;;14.29;54.19
76011;BME280;64701;43.536;1.478;2023-03-23T00:09:12;99127.22;;;14.26;54.54
76011;BME280;64701;43.536;1.478;2023-03-23T00:11:37;99122.13;;;14.25;54.22
76011;BME280;64701;43.536;1.478;2023-03-23T00:14:04;99122.50;;;14.28;54.28
76011;BME280;64701;43.536;1.478;2023-03-23T00:16:30;99120.50;;;14.24;55.53
76011;BME280;64701;43.536;1.478;2023-03-23T00:19:12;99120.72;;;14.22;54.58
76011;BME280;64701;43.536;1.478;2023-03-23T00:21:41;99106.00;;;14.20;55.85
76011;BME280;64701;43.536;1.478;2023-03-23T00:24:08;99120.13;;;14.20;55.68
76011;BME280;64701;43.536;1.478;2023-03-23T00:26:35;99113.94;;;14.08;56.34
76011;BME280;64701;43.536;1.478;2023-03-23T00:29:01;99121.19;;;14.01;57.21
76011;BME280;64701;43.536;1.478;2023-03-23T00:31:27;99111.44;;;13.95;57.97
76011;BME280;64701;43.536;1.478;2023-03-23T00:33:58;99117.13;;;13.99;57.73
76011;BME280;64701;43.536;1.478;2023-03-23T00:36:25;99105.06;;;13.96;57.90
76011;BME280;64701;43.536;1.478;2023-03-23T00:38:51;99106.56;;;13.92;58.27
76011;BME280;64701;43.536;1.478;2023-03-23T00:41:17;99108.28;;;13.86;58.96
76011;BME280;64701;43.536;1.478;2023-03-23T00:43:42;99100.72;;;13.83;59.65
76011;BME280;64701;43.536;1.478;2023-03-23T00:46:08;99100.22;;;13.75;60.41
76011;BME280;64701;43.536;1.478;2023-03-23T00:48:35;99101.47;;;13.72;60.82
76011;BME280;64701;43.536;1.478;2023-03-23T00:51:01;99096.97;;;13.73;61.58
76011;BME280;64701;43.536;1.478;2023-03-23T00:53:30;99101.47;;;13.72;61.61
76011;BME280;64701;43.536;1.478;2023-03-23T00:55:56;99099.75;;;13.78;60.86
76011;BME280;64701;43.536;1.478;2023-03-23T00:58:21;99098.72;;;13.61;63.53
76011;BME280;64701;43.536;1.478;2023-03-23T01:00:46;99097.56;;;13.57;63.50
76011;BME280;64701;43.536;1.478;2023-03-23T01:03:11;99090.81;;;13.54;64.56
76011;BME280;64701;43.536;1.478;2023-03-23T01:05:43;99088.22;;;13.47;65.13
76011;BME280;64701;43.536;1.478;2023-03-23T01:08:08;99089.84;;;13.48;65.20
76011;BME280;64701;43.536;1.478;2023-03-23T01:10:35;99080.84;;;13.49;65.70
76011;BME280;64701;43.536;1.478;2023-03-23T01:13:03;99079.22;;;13.48;65.90
76011;BME280;64701;43.536;1.478;2023-03-23T01:15:29;99085.13;;;13.32;66.82
76011;BME280;64701;43.536;1.478;2023-03-23T01:17:54;99079.75;;;13.39;67.02
76011;BME280;64701;43.536;1.478;2023-03-23T01:20:20;99089.63;;;13.32;67.35
76011;BME280;64701;43.536;1.478;2023-03-23T01:22:45;99075.38;;;13.26;67.83
76011;BME280;64701;43.536;1.478;2023-03-23T01:25:11;99086.41;;;13.23;68.42
76011;BME280;64701;43.536;1.478;2023-03-23T01:27:37;99086.72;;;13.15;69.24
76011;BME280;64701;43.536;1.478;2023-03-23T01:30:03;99073.44;;;13.15;69.69
76011;BME280;64701;43.536;1.478;2023-03-23T01:32:28;99081.63;;;13.14;69.52
76011;BME280;64701;43.536;1.478;2023-03-23T01:34:54;99074.66;;;13.13;70.07
76011;BME280;64701;43.536;1.478;2023-03-23T01:37:19;99075.56;;;13.00;71.18
76011;BME280;64701;43.536;1.478;2023-03-23T01:39:45;99086.19;;;13.00;71.40
76011;BME280;64701;43.536;1.478;2023-03-23T01:42:10;99076.84;;;12.97;71.95
76011;BME280;64701;43.536;1.478;2023-03-23T01:47:01;99075.63;;;12.93;73.19
76011;BME280;64701;43.536;1.478;2023-03-23T01:49:31;99079.22;;;12.81;74.87
76011;BME280;64701;43.536;1.478;2023-03-23T01:52:00;99079.44;;;12.79;75.28
76011;BME280;64701;43.536;1.478;2023-03-23T01:54:27;99076.81;;;12.73;76.67
76011;BME280;64701;43.536;1.478;2023-03-23T01:56:54;99065.38;;;12.72;77.15
76011;BME280;64701;43.536;1.478;2023-03-23T01:59:20;99083.41;;;12.63;78.80
76011;BME280;64701;43.536;1.478;2023-03-23T02:01:47;99077.91;;;12.65;78.24
76011;BME280;64701;43.536;1.478;2023-03-23T02:04:13;99071.41;;;12.61;78.57
76011;BME280;64701;43.536;1.478;2023-03-23T02:06:40;99062.00;;;12.58;79.36
76011;BME280;64701;43.536;1.478;2023-03-23T02:09:05;99064.66;;;12.58;79.89
76011;BME280;64701;43.536;1.478;2023-03-23T02:11:33;99074.72;;;12.56;80.17
76011;BME280;64701;43.536;1.478;2023-03-23T02:13:58;99057.72;;;12.57;80.79
76011;BME280;64701;43.536;1.478;2023-03-23T02:18:54;99069.81;;;12.53;81.00
76011;BME280;64701;43.536;1.478;2023-03-23T02:26:38;99061.75;;;12.35;83.88
76011;BME280;64701;43.536;1.478;2023-03-23T02:34:14;99047.91;;;12.33;84.60
76011;BME280;64701;43.536;1.478;2023-03-23T02:39:30;99042.63;;;12.26;85.07
76011;BME280;64701;43.536;1.478;2023-03-23T02:41:56;99040.59;;;12.22;85.99
76011;BME280;64701;43.536;1.478;2023-03-23T02:44:23;99037.94;;;12.22;86.06
76011;BME280;64701;43.536;1.478;2023-03-23T02:46:50;99041.41;;;12.22;86.47
76011;BME280;64701;43.536;1.478;2023-03-23T02:49:16;99037.56;;;12.18;87.02
76011;BME280;64701;43.536;1.478;2023-03-23T02:51:43;99044.72;;;12.18;86.83
76011;BME280;64701;43.536;1.478;2023-03-23T02:54:10;99019.81;;;12.19;86.67
76011;BME280;64701;43.536;1.478;2023-03-23T02:56:36;99043.69;;;12.19;86.64
76011;BME280;64701;43.536;1.478;2023-03-23T02:59:02;99050.22;;;12.16;86.71
76011;BME280;64701;43.536;1.478;2023-03-23T03:04:07;99050.47;;;12.15;86.75
76011;BME280;64701;43.536;1.478;2023-03-23T03:06:54;99048.22;;;12.12;86.85
76011;BME280;64701;43.536;1.478;2023-03-23T03:11:58;99037.81;;;12.10;87.06
76011;BME280;64701;43.536;1.478;2023-03-23T03:14:31;99036.75;;;12.18;86.52
76011;BME280;64701;43.536;1.478;2023-03-23T03:17:21;99032.50;;;12.10;87.29
76011;BME280;64701;43.536;1.478;2023-03-23T03:19:45;99023.34;;;12.06;87.40
76011;BME280;64701;43.536;1.478;2023-03-23T03:22:12;99022.72;;;12.11;87.45
76011;BME280;64701;43.536;1.478;2023-03-23T03:24:38;99027.44;;;12.09;87.14
76011;BME280;64701;43.536;1.478;2023-03-23T03:27:05;99024.16;;;12.07;87.23
76011;BME280;64701;43.536;1.478;2023-03-23T03:29:36;99029.03;;;12.10;87.43
76011;BME280;64701;43.536;1.478;2023-03-23T03:32:03;99029.66;;;12.12;87.17
76011;BME280;64701;43.536;1.478;2023-03-23T03:34:30;99032.50;;;12.10;87.34
76011;BME280;64701;43.536;1.478;2023-03-23T03:36:57;99033.31;;;12.11;87.36
76011;BME280;64701;43.536;1.478;2023-03-23T03:39:23;99034.81;;;12.00;88.05
76011;BME280;64701;43.536;1.478;2023-03-23T03:41:49;99029.31;;;12.02;88.17
76011;BME280;64701;43.536;1.478;2023-03-23T03:44:14;99032.34;;;12.05;87.42
76011;BME280;64701;43.536;1.478;2023-03-23T03:46:40;99026.44;;;12.03;87.61
76011;BME280;64701;43.536;1.478;2023-03-23T03:49:06;99022.38;;;12.01;87.68
76011;BME280;64701;43.536;1.478;2023-03-23T03:51:32;99031.34;;;12.00;87.57
76011;BME280;64701;43.536;1.478;2023-03-23T03:53:57;99025.22;;;11.99;87.24
76011;BME280;64701;43.536;1.478;2023-03-23T03:56:23;99020.78;;;11.93;87.90
76011;BME280;64701;43.536;1.478;2023-03-23T03:58:51;99030.78;;;11.91;88.07
76011;BME280;64701;43.536;1.478;2023-03-23T04:01:16;99023.66;;;11.92;88.11
76011;BME280;64701;43.536;1.478;2023-03-23T04:03:42;99035.47;;;11.96;88.53
76011;BME280;64701;43.536;1.478;2023-03-23T04:06:08;99034.28;;;11.92;87.97
76011;BME280;64701;43.536;1.478;2023-03-23T04:08:34;99037.72;;;11.92;88.34
76011;BME280;64701;43.536;1.478;2023-03-23T04:11:00;99044.00;;;11.98;88.12
76011;BME280;64701;43.536;1.478;2023-03-23T04:13:26;99035.47;;;11.96;88.43
76011;BME280;64701;43.536;1.478;2023-03-23T04:15:51;99038.28;;;12.01;88.41
76011;BME280;64701;43.536;1.478;2023-03-23T04:18:17;99045.66;;;11.92;89.08
76011;BME280;64701;43.536;1.478;2023-03-23T04:20:46;99041.63;;;11.90;89.38
76011;BME280;64701;43.536;1.478;2023-03-23T04:23:15;99049.38;;;11.91;89.66
76011;BME280;64701;43.536;1.478;2023-03-23T04:25:45;99058.16;;;11.92;89.55
76011;BME280;64701;43.536;1.478;2023-03-23T04:28:10;99036.31;;;11.90;89.52
76011;BME280;64701;43.536;1.478;2023-03-23T04:30:36;99040.78;;;11.96;89.18
76011;BME280;64701;43.536;1.478;2023-03-23T04:33:01;99044.88;;;11.92;89.84
76011;BME280;64701;43.536;1.478;2023-03-23T04:35:27;99060.78;;;11.92;89.92
76011;BME280;64701;43.536;1.478;2023-03-23T04:37:54;99054.25;;;11.94;89.19
76011;BME280;64701;43.536;1.478;2023-03-23T04:40:19;99059.91;;;11.98;89.29
76011;BME280;64701;43.536;1.478;2023-03-23T04:42:45;99051.56;;;12.01;89.11
76011;BME280;64701;43.536;1.478;2023-03-23T04:45:11;99075.44;;;12.01;89.55
76011;BME280;64701;43.536;1.478;2023-03-23T04:47:38;99065.59;;;12.08;89.41
76011;BME280;64701;43.536;1.478;2023-03-23T04:50:11;99067.00;;;12.10;88.29
76011;BME280;64701;43.536;1.478;2023-03-23T04:52:38;99071.50;;;12.10;88.83
76011;BME280;64701;43.536;1.478;2023-03-23T04:55:06;99066.41;;;12.15;88.28
76011;BME280;64701;43.536;1.478;2023-03-23T04:57:31;99073.72;;;12.19;88.14
76011;BME280;64701;43.536;1.478;2023-03-23T04:59:58;99076.56;;;12.18;88.61
76011;BME280;64701;43.536;1.478;2023-03-23T05:02:23;99076.94;;;12.21;88.38
76011;BME280;64701;43.536;1.478;2023-03-23T05:04:50;99089.81;;;12.24;88.04
76011;BME280;64701;43.536;1.478;2023-03-23T05:07:16;99082.88;;;12.23;88.53
76011;BME280;64701;43.536;1.478;2023-03-23T05:09:41;99087.13;;;12.31;88.00
76011;BME280;64701;43.536;1.478;2023-03-23T05:12:07;99083.44;;;12.32;87.68
76011;BME280;64701;43.536;1.478;2023-03-23T05:14:33;99084.47;;;12.31;87.63
76011;BME280;64701;43.536;1.478;2023-03-23T05:16:58;99082.81;;;12.30;88.24
76011;BME280;64701;43.536;1.478;2023-03-23T05:19:24;99065.88;;;12.31;87.97
76011;BME280;64701;43.536;1.478;2023-03-23T05:21:49;99083.44;;;12.32;87.73
76011;BME280;64701;43.536;1.478;2023-03-23T05:24:14;99086.72;;;12.27;87.95
76011;BME280;64701;43.536;1.478;2023-03-23T05:26:40;99092.03;;;12.27;87.77
76011;BME280;64701;43.536;1.478;2023-03-23T05:29:05;99093.06;;;12.26;88.22
76011;BME280;64701;43.536;1.478;2023-03-23T05:31:30;99109.63;;;12.22;88.38
76011;BME280;64701;43.536;1.478;2023-03-23T05:33:57;99100.38;;;12.31;87.64
76011;BME280;64701;43.536;1.478;2023-03-23T05:36:22;99103.03;;;12.31;87.39
76011;BME280;64701;43.536;1.478;2023-03-23T05:38:48;99103.47;;;12.28;87.94
76011;BME280;64701;43.536;1.478;2023-03-23T05:41:14;99091.66;;;12.24;87.74
76011;BME280;64701;43.536;1.478;2023-03-23T05:43:40;99094.31;;;12.24;87.97
76011;BME280;64701;43.536;1.478;2023-03-23T05:46:05;99104.91;;;12.24;87.91
76011;BME280;64701;43.536;1.478;2023-03-23T05:48:32;99101.84;;;12.27;88.00
76011;BME280;64701;43.536;1.478;2023-03-23T05:50:58;99097.72;;;12.31;87.46
76011;BME280;64701;43.536;1.478;2023-03-23T05:53:23;99099.78;;;12.29;88.05
76011;BME280;64701;43.536;1.478;2023-03-23T05:55:49;99095.50;;;12.28;87.55
76011;BME280;64701;43.536;1.478;2023-03-23T05:58:14;99102.06;;;12.25;88.41
76011;BME280;64701;43.536;1.478;2023-03-23T06:00:39;99108.75;;;12.28;87.72
76011;BME280;64701;43.536;1.478;2023-03-23T06:03:05;99112.84;;;12.31;88.16
76011;BME280;64701;43.536;1.478;2023-03-23T06:05:30;99108.75;;;12.28;88.00
76011;BME280;64701;43.536;1.478;2023-03-23T06:07:56;99106.31;;;12.33;87.38
76011;BME280;64701;43.536;1.478;2023-03-23T06:10:21;99106.94;;;12.28;87.73
76011;BME280;64701;43.536;1.478;2023-03-23T06:12:47;99111.84;;;12.25;88.16
76011;BME280;64701;43.536;1.478;2023-03-23T06:15:14;99117.34;;;12.30;87.48
76011;BME280;64701;43.536;1.478;2023-03-23T06:17:39;99109.63;;;12.22;87.94
76011;BME280;64701;43.536;1.478;2023-03-23T06:20:05;99108.56;;;12.30;87.60
76011;BME280;64701;43.536;1.478;2023-03-23T06:22:36;99128.41;;;12.27;87.14
76011;BME280;64701;43.536;1.478;2023-03-23T06:25:01;99128.81;;;12.24;87.65
76011;BME280;64701;43.536;1.478;2023-03-23T06:27:26;99134.91;;;12.31;86.90
76011;BME280;64701;43.536;1.478;2023-03-23T06:29:52;99140.22;;;12.31;87.39
76011;BME280;64701;43.536;1.478;2023-03-23T06:32:17;99150.19;;;12.36;87.26
76011;BME280;64701;43.536;1.478;2023-03-23T06:34:42;99147.53;;;12.36;86.82
76011;BME280;64701;43.536;1.478;2023-03-23T06:37:09;99173.69;;;12.32;87.18
76011;BME280;64701;43.536;1.478;2023-03-23T06:39:35;99165.91;;;12.37;86.91
76011;BME280;64701;43.536;1.478;2023-03-23T06:42:02;99153.25;;;12.39;86.47
76011;BME280;64701;43.536;1.478;2023-03-23T06:44:28;99166.69;;;12.44;86.55
76011;BME280;64701;43.536;1.478;2023-03-23T06:46:53;99160.94;;;12.47;86.45
76011;BME280;64701;43.536;1.478;2023-03-23T06:49:18;99161.34;;;12.51;86.44
76011;BME280;64701;43.536;1.478;2023-03-23T06:51:44;99157.63;;;12.58;86.06
76011;BME280;64701;43.536;1.478;2023-03-23T06:54:10;99178.00;;;12.64;85.73
76011;BME280;64701;43.536;1.478;2023-03-23T06:56:35;99183.94;;;12.66;86.13
76011;BME280;64701;43.536;1.478;2023-03-23T06:59:01;99180.44;;;12.73;85.87
76011;BME280;64701;43.536;1.478;2023-03-23T07:01:26;99193.47;;;12.81;85.97
76011;BME280;64701;43.536;1.478;2023-03-23T07:03:53;99205.28;;;12.85;85.34
76011;BME280;64701;43.536;1.478;2023-03-23T07:06:18;99212.41;;;12.91;85.39
76011;BME280;64701;43.536;1.478;2023-03-23T07:08:44;99210.94;;;12.95;85.31
76011;BME280;64701;43.536;1.478;2023-03-23T07:11:09;99217.41;;;13.12;85.06
76011;BME280;64701;43.536;1.478;2023-03-23T07:13:35;99215.34;;;13.14;84.33
76011;BME280;64701;43.536;1.478;2023-03-23T07:16:03;99225.72;;;13.22;84.56
76011;BME280;64701;43.536;1.478;2023-03-23T07:18:29;99218.22;;;13.37;83.79
76011;BME280;64701;43.536;1.478;2023-03-23T07:20:54;99227.28;;;13.55;83.66
76011;BME280;64701;43.536;1.478;2023-03-23T07:23:20;99227.59;;;13.65;82.78
76011;BME280;64701;43.536;1.478;2023-03-23T07:25:45;99227.28;;;13.55;82.14
76011;BME280;64701;43.536;1.478;2023-03-23T07:28:12;99225.66;;;13.54;82.66
76011;BME280;64701;43.536;1.478;2023-03-23T07:30:38;99234.41;;;13.61;82.46
76011;BME280;64701;43.536;1.478;2023-03-23T07:33:06;99244.16;;;13.42;82.80
76011;BME280;64701;43.536;1.478;2023-03-23T07:35:32;99234.97;;;13.44;83.11
76011;BME280;64701;43.536;1.478;2023-03-23T07:37:58;99247.06;;;13.40;83.48
76011;BME280;64701;43.536;1.478;2023-03-23T07:40:23;99238.03;;;13.41;83.44
76011;BME280;64701;43.536;1.478;2023-03-23T07:42:53;99248.41;;;13.49;83.39
76011;BME280;64701;43.536;1.478;2023-03-23T07:45:18;99235.88;;;13.57;82.85
76011;BME280;64701;43.536;1.478;2023-03-23T07:47:44;99248.41;;;13.49;82.85
76011;BME280;64701;43.536;1.478;2023-03-23T07:50:10;99236.75;;;13.51;83.21
76011;BME280;64701;43.536;1.478;2023-03-23T07:52:36;99242.31;;;13.42;83.69
76011;BME280;64701;43.536;1.478;2023-03-23T07:55:01;99245.16;;;13.47;83.43
76011;BME280;64701;43.536;1.478;2023-03-23T07:57:28;99250.63;;;13.53;83.44
76011;BME280;64701;43.536;1.478;2023-03-23T07:59:54;99253.28;;;13.53;83.82
76011;BME280;64701;43.536;1.478;2023-03-23T08:02:19;99236.47;;;13.59;83.79
76011;BME280;64701;43.536;1.478;2023-03-23T08:04:44;99235.00;;;13.63;83.32
76011;BME280;64701;43.536;1.478;2023-03-23T08:07:10;99226.41;;;13.61;83.73
76011;BME280;64701;43.536;1.478;2023-03-23T08:09:37;99233.31;;;13.68;83.68
76011;BME280;64701;43.536;1.478;2023-03-23T08:12:03;99238.88;;;13.85;83.24
76011;BME280;64701;43.536;1.478;2023-03-23T08:14:29;99242.31;;;13.92;83.06
76011;BME280;64701;43.536;1.478;2023-03-23T08:16:55;99237.19;;;13.90;82.63
76011;BME280;64701;43.536;1.478;2023-03-23T08:19:21;99239.94;;;14.02;82.97
76011;BME280;64701;43.536;1.478;2023-03-23T08:21:46;99239.53;;;14.05;82.46
76011;BME280;64701;43.536;1.478;2023-03-23T08:24:12;99233.66;;;14.15;82.25
76011;BME280;64701;43.536;1.478;2023-03-23T08:26:38;99229.91;;;14.22;81.44
76011;BME280;64701;43.536;1.478;2023-03-23T08:29:03;99222.34;;;14.19;81.19
76011;BME280;64701;43.536;1.478;2023-03-23T08:31:29;99238.34;;;14.38;81.40
76011;BME280;64701;43.536;1.478;2023-03-23T08:33:54;99242.78;;;14.44;81.17
76011;BME280;64701;43.536;1.478;2023-03-23T08:36:21;99244.88;;;14.42;80.32
76011;BME280;64701;43.536;1.478;2023-03-23T08:38:47;99238.00;;;14.52;80.20
76011;BME280;64701;43.536;1.478;2023-03-23T08:41:12;99241.09;;;14.49;80.20
76011;BME280;64701;43.536;1.478;2023-03-23T08:43:38;99236.63;;;14.61;79.99
76011;BME280;64701;43.536;1.478;2023-03-23T08:46:04;99237.97;;;14.70;79.31
76011;BME280;64701;43.536;1.478;2023-03-23T08:48:34;99257.69;;;14.81;78.94
76011;BME280;64701;43.536;1.478;2023-03-23T08:51:00;99245.88;;;15.07;78.91
76011;BME280;64701;43.536;1.478;2023-03-23T08:53:26;99238.56;;;15.14;77.10
76011;BME280;64701;43.536;1.478;2023-03-23T08:55:51;99251.81;;;15.32;76.94
76011;BME280;64701;43.536;1.478;2023-03-23T08:58:16;99251.72;;;15.27;76.81
76011;BME280;64701;43.536;1.478;2023-03-23T09:00:42;99259.59;;;15.34;76.97
76011;BME280;64701;43.536;1.478;2023-03-23T09:03:08;99258.69;;;15.40;76.00
76011;BME280;64701;43.536;1.478;2023-03-23T09:05:33;99262.88;;;15.36;76.55
76011;BME280;64701;43.536;1.478;2023-03-23T09:07:58;99259.47;;;15.17;76.33
76011;BME280;64701;43.536;1.478;2023-03-23T09:10:25;99262.22;;;15.10;76.96
76011;BME280;64701;43.536;1.478;2023-03-23T09:12:51;99250.81;;;15.03;77.21
76011;BME280;64701;43.536;1.478;2023-03-23T09:15:17;99257.66;;;14.99;77.40
76011;BME280;64701;43.536;1.478;2023-03-23T09:17:43;99251.94;;;14.96;77.71
76011;BME280;64701;43.536;1.478;2023-03-23T09:20:10;99256.38;;;15.02;77.72
76011;BME280;64701;43.536;1.478;2023-03-23T09:22:37;99266.38;;;15.06;77.75
76011;BME280;64701;43.536;1.478;2023-03-23T09:25:03;99255.13;;;15.04;77.52
76011;BME280;64701;43.536;1.478;2023-03-23T09:27:29;99252.28;;;15.18;76.92
76011;BME280;64701;43.536;1.478;2023-03-23T09:29:54;99266.03;;;15.15;77.24
76011;BME280;64701;43.536;1.478;2023-03-23T09:32:20;99258.78;;;15.33;76.68
76011;BME280;64701;43.536;1.478;2023-03-23T09:34:47;99241.69;;;15.52;76.51
76011;BME280;64701;43.536;1.478;2023-03-23T09:37:12;99247.50;;;15.61;75.76
76011;BME280;64701;43.536;1.478;2023-03-23T09:39:39;99234.16;;;15.61;74.66
76011;BME280;64701;43.536;1.478;2023-03-23T09:52:17;99242.97;;;15.85;73.11
76011;BME280;64701;43.536;1.478;2023-03-23T09:54:43;99250.75;;;16.10;73.70
76011;BME280;64701;43.536;1.478;2023-03-23T09:57:20;99256.47;;;16.02;72.91
76011;BME280;64701;43.536;1.478;2023-03-23T10:02:14;99245.50;;;16.38;72.91
76011;BME280;64701;43.536;1.478;2023-03-23T10:04:49;99240.94;;;16.50;72.35
76011;BME280;64701;43.536;1.478;2023-03-23T10:07:18;99246.50;;;16.60;71.26
76011;BME280;64701;43.536;1.478;2023-03-23T10:09:44;99249.63;;;16.57;71.11
76011;BME280;64701;43.536;1.478;2023-03-23T10:17:51;99250.34;;;16.53;71.71
76011;BME280;64701;43.536;1.478;2023-03-23T10:20:22;99243.72;;;16.67;71.53
76011;BME280;64701;43.536;1.478;2023-03-23T10:25:28;99249.97;;;17.01;70.26
76011;BME280;64701;43.536;1.478;2023-03-23T10:28:11;99251.81;;;17.00;69.50
76011;BME280;64701;43.536;1.478;2023-03-23T10:35:44;99248.63;;;17.15;69.51
76011;BME280;64701;43.536;1.478;2023-03-23T10:38:12;99236.75;;;17.11;68.45
76011;BME280;64701;43.536;1.478;2023-03-23T10:40:44;99248.84;;;17.13;68.96
76011;BME280;64701;43.536;1.478;2023-03-23T10:43:12;99249.38;;;17.27;69.90
76011;BME280;64701;43.536;1.478;2023-03-23T10:45:38;99240.94;;;17.35;68.34
76011;BME280;64701;43.536;1.478;2023-03-23T10:50:34;99244.09;;;17.82;68.14
76011;BME280;64701;43.536;1.478;2023-03-23T10:53:00;99259.53;;;18.30;67.26
76011;BME280;64701;43.536;1.478;2023-03-23T10:55:40;99258.19;;;18.93;66.94
76011;BME280;64701;43.536;1.478;2023-03-23T10:58:07;99257.31;;;19.41;63.86
76011;BME280;64701;43.536;1.478;2023-03-23T11:00:39;99251.69;;;19.75;62.03
76011;BME280;64701;43.536;1.478;2023-03-23T11:03:07;99250.59;;;20.13;59.60
76011;BME280;64701;43.536;1.478;2023-03-23T11:05:56;99260.81;;;20.16;59.42
76011;BME280;64701;43.536;1.478;2023-03-23T11:09:09;99251.31;;;20.45;59.67
76011;BME280;64701;43.536;1.478;2023-03-23T11:11:09;99241.00;;;20.94;56.81
76011;BME280;64701;43.536;1.478;2023-03-23T11:13:37;99231.66;;;21.52;55.69
76011;BME280;64701;43.536;1.478;2023-03-23T11:16:03;99223.53;;;21.88;53.01
76011;BME280;64701;43.536;1.478;2023-03-23T11:18:42;99224.03;;;22.25;52.37
76011;BME280;64701;43.536;1.478;2023-03-23T11:21:11;99223.53;;;22.13;53.27
76011;BME280;64701;43.536;1.478;2023-03-23T11:23:38;99220.47;;;22.40;51.42
76011;BME280;64701;43.536;1.478;2023-03-23T11:26:13;99218.09;;;22.28;53.64
76011;BME280;64701;43.536;1.478;2023-03-23T11:29:24;99212.50;;;22.74;50.70
76011;BME280;64701;43.536;1.478;2023-03-23T11:31:34;99201.06;;;22.33;51.07
76011;BME280;64701;43.536;1.478;2023-03-23T11:34:10;99196.72;;;22.96;49.77
76011;BME280;64701;43.536;1.478;2023-03-23T11:36:40;99191.53;;;22.56;50.48
76011;BME280;64701;43.536;1.478;2023-03-23T11:39:26;99183.31;;;22.81;51.31
76011;BME280;64701;43.536;1.478;2023-03-23T11:41:52;99202.50;;;22.79;49.61
76011;BME280;64701;43.536;1.478;2023-03-23T11:44:20;99191.31;;;23.30;49.49
76011;BME280;64701;43.536;1.478;2023-03-23T11:47:05;99177.78;;;23.93;48.29
76011;BME280;64701;43.536;1.478;2023-03-23T11:52:19;99181.84;;;25.18;45.23
76011;BME280;64701;43.536;1.478;2023-03-23T11:54:48;99175.72;;;24.94;44.07
76011;BME280;64701;43.536;1.478;2023-03-23T11:57:16;99172.78;;;25.41;43.24
76011;BME280;64701;43.536;1.478;2023-03-23T11:59:43;99159.91;;;25.66;42.14
76011;BME280;64701;43.536;1.478;2023-03-23T12:02:25;99164.84;;;26.18;41.46
76011;BME280;64701;43.536;1.478;2023-03-23T12:04:57;99161.94;;;25.74;41.56
76011;BME280;64701;43.536;1.478;2023-03-23T12:17:28;99136.81;;;24.28;45.36
76011;BME280;64701;43.536;1.478;2023-03-23T12:22:57;99134.97;;;24.24;45.18
76011;BME280;64701;43.536;1.478;2023-03-23T12:27:54;99123.09;;;24.20;46.16
76011;BME280;64701;43.536;1.478;2023-03-23T12:33:11;99111.72;;;24.98;45.05
76011;BME280;64701;43.536;1.478;2023-03-23T12:41:03;99104.75;;;24.73;43.87
76011;BME280;64701;43.536;1.478;2023-03-23T12:48:32;99074.03;;;24.83;43.58
76011;BME280;64701;43.536;1.478;2023-03-23T12:51:05;99064.84;;;24.65;44.00
76011;BME280;64701;43.536;1.478;2023-03-23T12:53:36;99072.28;;;24.17;44.50
76011;BME280;64701;43.536;1.478;2023-03-23T12:56:11;99063.63;;;24.15;46.61
76011;BME280;64701;43.536;1.478;2023-03-23T12:58:47;99053.28;;;24.59;45.08
76011;BME280;64701;43.536;1.478;2023-03-23T13:01:19;99070.22;;;24.84;44.85
76011;BME280;64701;43.536;1.478;2023-03-23T13:04:21;99055.34;;;25.00;43.64
76011;BME280;64701;43.536;1.478;2023-03-23T13:06:41;99051.22;;;25.48;44.10
76011;BME280;64701;43.536;1.478;2023-03-23T13:11:39;99048.44;;;26.17;42.11
76011;BME280;64701;43.536;1.478;2023-03-23T13:14:10;99061.22;;;26.16;41.02
76011;BME280;64701;43.536;1.478;2023-03-23T13:20:11;99036.56;;;25.49;41.83
76011;BME280;64701;43.536;1.478;2023-03-23T13:22:06;99043.84;;;25.08;42.23
76011;BME280;64701;43.536;1.478;2023-03-23T13:24:33;99037.06;;;24.92;42.74
76011;BME280;64701;43.536;1.478;2023-03-23T13:27:00;99038.97;;;25.92;43.64
76011;BME280;64701;43.536;1.478;2023-03-23T13:29:26;99035.75;;;25.90;40.97
76011;BME280;64701;43.536;1.478;2023-03-23T13:32:03;99051.78;;;25.18;41.38
76011;BME280;64701;43.536;1.478;2023-03-23T13:34:29;99026.53;;;25.64;41.92
76011;BME280;64701;43.536;1.478;2023-03-23T13:36:59;99017.59;;;26.13;40.45
76011;BME280;64701;43.536;1.478;2023-03-23T13:39:26;99019.78;;;25.88;40.98
76011;BME280;64701;43.536;1.478;2023-03-23T13:42:00;99010.56;;;26.25;41.08
76011;BME280;64701;43.536;1.478;2023-03-23T13:44:27;98999.44;;;25.99;40.44
76011;BME280;64701;43.536;1.478;2023-03-23T13:46:53;99009.00;;;25.15;41.24
76011;BME280;64701;43.536;1.478;2023-03-23T13:49:20;98990.91;;;24.32;43.65
76011;BME280;64701;43.536;1.478;2023-03-23T13:54:40;98993.94;;;23.45;45.96
76011;BME280;64701;43.536;1.478;2023-03-23T13:57:21;99008.31;;;23.17;45.90
76011;BME280;64701;43.536;1.478;2023-03-23T13:59:49;98992.06;;;22.93;46.11
76011;BME280;64701;43.536;1.478;2023-03-23T14:04:57;98989.16;;;23.37;45.81
76011;BME280;64701;43.536;1.478;2023-03-23T14:07:49;99004.03;;;22.82;46.15
76011;BME280;64701;43.536;1.478;2023-03-23T14:10:15;98998.75;;;22.33;47.71
76011;BME280;64701;43.536;1.478;2023-03-23T14:12:41;98980.75;;;21.74;49.24
76011;BME280;64701;43.536;1.478;2023-03-23T14:15:11;99007.81;;;21.49;50.27
76011;BME280;64701;43.536;1.478;2023-03-23T14:17:41;98994.66;;;21.37;50.58
76011;BME280;64701;43.536;1.478;2023-03-23T14:20:09;98984.44;;;21.24;51.23
76011;BME280;64701;43.536;1.478;2023-03-23T14:22:42;98987.63;;;21.41;50.92
76011;BME280;64701;43.536;1.478;2023-03-23T14:25:12;98969.41;;;21.08;51.41
76011;BME280;64701;43.536;1.478;2023-03-23T14:27:38;98968.78;;;21.41;51.62
76011;BME280;64701;43.536;1.478;2023-03-23T14:30:05;98954.56;;;21.85;50.12
76011;BME280;64701;43.536;1.478;2023-03-23T14:32:31;98965.63;;;22.27;50.03
76011;BME280;64701;43.536;1.478;2023-03-23T14:34:57;98942.03;;;22.09;49.97
76011;BME280;64701;43.536;1.478;2023-03-23T14:37:23;98955.88;;;21.38;51.32